Time;durP1;ratioP1;P1;durP2;ratioP2;P2;SDS_P1;SDS_P2;PMS_P1;PMS_P2;Temp;Humidity;BMP_temperature;BMP_pressure;BME280_temperature;BME280_humidity;BME280_pressure;Samples;Min_cycle;Max_cycle;Signal;HPM_P1;HPM_P2
2022/05/30 00:00:43;;;;;;;2.58;2.38;;;11.70;99.90;;;;;;4900320;29;20271;-83
2022/05/30 00:03:14;;;;;;;3.88;2.75;;;11.70;99.90;;;;;;4900223;29;20215;-84
2022/05/30 00:05:47;;;;;;;2.13;2.03;;;11.70;99.90;;;;;;4900549;29;20215;-84
2022/05/30 00:08:16;;;;;;;4.45;2.45;;;11.70;99.90;;;;;;4900370;29;20219;-83
2022/05/30 00:10:45;;;;;;;2.25;2.10;;;11.70;99.90;;;;;;4899982;29;20238;-83
2022/05/30 00:13:14;;;;;;;1.73;1.63;;;11.70;99.90;;;;;;4900151;29;20215;-83
2022/05/30 00:15:43;;;;;;;2.28;2.08;;;11.70;99.90;;;;;;4900332;29;20211;-83
2022/05/30 00:18:13;;;;;;;2.40;2.17;;;11.70;99.90;;;;;;4900256;29;20221;-84
2022/05/30 00:20:46;;;;;;;1.73;1.63;;;11.70;99.90;;;;;;4899761;29;20215;-84
2022/05/30 00:23:15;;;;;;;2.22;2.05;;;11.70;99.90;;;;;;4899784;29;20263;-84
2022/05/30 00:25:44;;;;;;;1.40;1.40;;;11.70;99.90;;;;;;4899987;29;20219;-83
2022/05/30 00:28:13;;;;;;;1.60;1.50;;;11.70;99.90;;;;;;4900062;29;20219;-83
2022/05/30 00:30:41;;;;;;;1.73;1.63;;;11.80;99.90;;;;;;4899516;29;20300;-84
2022/05/30 00:33:10;;;;;;;1.20;1.20;;;11.70;99.90;;;;;;4900003;29;20219;-84
2022/05/30 00:35:41;;;;;;;1.35;1.25;;;11.70;99.90;;;;;;4899947;29;20242;-84
2022/05/30 00:38:10;;;;;;;1.17;1.15;;;11.70;99.90;;;;;;4899701;29;20278;-83
2022/05/30 00:40:40;;;;;;;1.83;1.63;;;11.70;99.90;;;;;;4899518;29;20239;-84
2022/05/30 00:43:19;;;;;;;1.60;1.50;;;11.80;99.90;;;;;;4899829;29;20255;-84
2022/05/30 00:45:48;;;;;;;1.52;1.40;;;11.80;99.90;;;;;;4899775;29;20207;-84
2022/05/30 00:48:19;;;;;;;1.33;1.20;;;11.80;99.90;;;;;;4899498;29;20215;-83
2022/05/30 00:50:52;;;;;;;1.35;1.25;;;11.70;99.90;;;;;;4899259;29;20230;-83
2022/05/30 00:53:21;;;;;;;1.35;1.25;;;11.70;99.90;;;;;;4899613;29;20211;-83
2022/05/30 00:55:57;;;;;;;1.45;1.30;;;11.70;99.90;;;;;;4899479;29;20214;-83
2022/05/30 00:58:27;;;;;;;1.20;1.10;;;11.70;99.90;;;;;;4899493;29;20322;-83
2022/05/30 01:00:55;;;;;;;1.85;1.40;;;11.70;99.90;;;;;;4899155;29;20227;-83
2022/05/30 01:08:57;;;;;;;1.42;1.33;;;11.70;99.90;;;;;;4899371;29;20235;-83
2022/05/30 01:11:26;;;;;;;1.55;1.45;;;11.70;99.90;;;;;;4899436;29;20215;-83
2022/05/30 01:13:54;;;;;;;1.63;1.52;;;11.70;99.90;;;;;;4899295;29;20211;-83
2022/05/30 01:16:22;;;;;;;1.38;1.27;;;11.70;99.90;;;;;;4899151;29;20298;-83
2022/05/30 01:18:56;;;;;;;1.63;1.52;;;11.60;99.90;;;;;;4898832;29;20250;-84
2022/05/30 01:21:45;;;;;;;1.42;1.38;;;11.60;99.90;;;;;;4898996;29;20219;-84
2022/05/30 01:24:29;;;;;;;5.53;1.83;;;11.60;99.90;;;;;;4899146;29;20211;-84
2022/05/30 01:27:20;;;;;;;1.80;1.70;;;11.60;99.90;;;;;;4899059;29;20241;-84
2022/05/30 01:29:55;;;;;;;1.63;1.52;;;11.60;99.90;;;;;;4898829;29;20258;-84
2022/05/30 01:32:24;;;;;;;1.15;1.15;;;11.60;99.90;;;;;;4898855;29;20258;-83
2022/05/30 01:34:52;;;;;;;1.63;1.52;;;11.60;99.90;;;;;;4898813;29;20223;-83
2022/05/30 01:37:21;;;;;;;1.63;1.52;;;11.60;99.90;;;;;;4899112;29;20301;-83
2022/05/30 01:39:49;;;;;;;1.15;1.15;;;11.60;99.90;;;;;;4898537;29;20263;-84
2022/05/30 01:42:18;;;;;;;1.35;1.25;;;11.60;99.90;;;;;;4898532;29;20215;-84
2022/05/30 01:44:46;;;;;;;1.63;1.52;;;11.60;99.90;;;;;;4898923;29;20207;-83
2022/05/30 01:47:16;;;;;;;2.05;1.33;;;11.60;99.90;;;;;;4898688;29;20274;-84
2022/05/30 01:49:45;;;;;;;1.27;1.17;;;11.60;99.90;;;;;;4898439;29;20231;-84
2022/05/30 01:52:13;;;;;;;1.50;1.40;;;11.60;99.90;;;;;;4898029;29;20210;-83
2022/05/30 01:54:41;;;;;;;1.65;1.55;;;11.50;99.90;;;;;;4898239;29;20231;-84
2022/05/30 01:57:10;;;;;;;1.30;1.30;;;11.50;99.90;;;;;;4898564;29;20218;-84
2022/05/30 01:59:38;;;;;;;9.88;1.42;;;11.50;99.90;;;;;;4898467;29;20284;-84
2022/05/30 02:02:06;;;;;;;2.75;1.95;;;11.50;99.90;;;;;;4898644;29;20207;-83
2022/05/30 02:04:36;;;;;;;2.78;1.80;;;11.50;99.90;;;;;;4898675;29;20238;-83
2022/05/30 02:07:05;;;;;;;1.58;1.42;;;11.50;99.90;;;;;;4898224;29;20283;-84
2022/05/30 02:09:34;;;;;;;2.20;1.48;;;11.50;99.90;;;;;;4897139;29;20348;-83
2022/05/30 02:12:02;;;;;;;1.00;1.00;;;11.50;99.90;;;;;;4898098;29;20230;-84
2022/05/30 02:14:31;;;;;;;4.22;1.17;;;11.50;99.90;;;;;;4898317;29;20234;-83
2022/05/30 02:17:01;;;;;;;1.13;1.13;;;11.50;99.90;;;;;;4897977;29;20306;-83
2022/05/30 02:19:31;;;;;;;1.02;1.02;;;11.50;99.90;;;;;;4898129;29;20287;-84
2022/05/30 02:22:01;;;;;;;0.82;0.82;;;11.50;99.90;;;;;;4898147;29;20211;-83
2022/05/30 02:24:30;;;;;;;1.20;1.10;;;11.40;99.90;;;;;;4897887;29;20294;-83
2022/05/30 02:26:58;;;;;;;1.00;1.00;;;11.30;99.90;;;;;;4897827;29;20214;-83
2022/05/30 02:29:27;;;;;;;1.50;1.40;;;11.30;99.90;;;;;;4897807;29;20290;-83
2022/05/30 02:31:55;;;;;;;1.20;1.10;;;11.20;99.90;;;;;;4897242;29;20281;-82
2022/05/30 02:37:11;;;;;;;1.30;1.20;;;11.10;99.90;;;;;;4897805;29;20266;-83
2022/05/30 02:39:39;;;;;;;1.35;1.13;;;11.00;99.90;;;;;;4897233;29;20258;-83
2022/05/30 02:42:08;;;;;;;1.08;1.08;;;11.00;99.90;;;;;;4897548;29;20262;-83
2022/05/30 02:44:37;;;;;;;0.93;0.93;;;10.90;99.90;;;;;;4897947;29;20211;-83
2022/05/30 02:47:06;;;;;;;0.95;0.95;;;10.90;99.90;;;;;;4897657;29;20254;-83
2022/05/30 02:49:35;;;;;;;2.17;1.75;;;10.80;99.90;;;;;;4897504;29;20226;-83
2022/05/30 02:52:03;;;;;;;1.70;1.40;;;10.80;99.90;;;;;;4896673;29;20287;-84
2022/05/30 02:54:33;;;;;;;1.27;1.25;;;10.70;99.90;;;;;;4897727;29;20203;-83
2022/05/30 02:57:02;;;;;;;0.90;0.90;;;10.70;99.90;;;;;;4897827;29;20211;-83
2022/05/30 02:59:30;;;;;;;1.05;1.05;;;10.60;99.90;;;;;;4897055;29;20266;-83
2022/05/30 03:01:59;;;;;;;1.38;1.27;;;10.60;99.90;;;;;;4897358;29;20214;-83
2022/05/30 03:04:27;;;;;;;2.38;1.45;;;10.60;99.90;;;;;;4897442;29;20222;-84
2022/05/30 03:06:55;;;;;;;1.25;1.25;;;10.60;99.90;;;;;;4897632;29;20311;-83
2022/05/30 03:09:24;;;;;;;1.33;1.20;;;10.60;99.90;;;;;;4897629;29;20310;-83
2022/05/30 03:11:53;;;;;;;0.93;0.93;;;10.60;99.90;;;;;;4897319;29;20231;-83
2022/05/30 03:14:22;;;;;;;1.40;1.30;;;10.60;99.90;;;;;;4897449;29;20242;-83
2022/05/30 03:16:50;;;;;;;1.30;1.20;;;10.60;99.90;;;;;;4897653;29;20303;-83
2022/05/30 03:19:18;;;;;;;1.10;1.10;;;10.60;99.90;;;;;;4897177;29;20322;-83
2022/05/30 03:21:47;;;;;;;1.40;1.30;;;10.60;99.90;;;;;;4900746;29;20207;-83
2022/05/30 03:24:15;;;;;;;0.95;0.95;;;10.60;99.90;;;;;;4901254;29;20238;-83
2022/05/30 03:26:43;;;;;;;1.13;1.13;;;10.60;99.90;;;;;;4901012;29;20235;-83
2022/05/30 03:29:13;;;;;;;1.08;1.08;;;10.60;99.90;;;;;;4900817;29;20230;-83
2022/05/30 03:31:42;;;;;;;1.40;1.30;;;10.60;99.90;;;;;;4900766;29;20318;-83
2022/05/30 03:34:10;;;;;;;1.63;1.50;;;10.50;99.90;;;;;;4900756;29;20246;-83
2022/05/30 03:36:38;;;;;;;1.20;1.20;;;10.50;99.90;;;;;;4900997;29;20303;-83
2022/05/30 03:39:06;;;;;;;0.90;0.90;;;10.60;99.90;;;;;;4900714;29;20231;-83
2022/05/30 03:41:35;;;;;;;1.38;1.27;;;10.60;99.90;;;;;;4900486;29;20231;-83
2022/05/30 03:44:03;;;;;;;3.20;1.45;;;10.60;99.90;;;;;;4900383;29;20242;-83
2022/05/30 03:46:34;;;;;;;0.98;0.98;;;10.60;99.90;;;;;;4901287;29;20203;-83
2022/05/30 03:49:03;;;;;;;1.13;1.13;;;10.60;99.90;;;;;;4900905;29;20235;-83
2022/05/30 03:51:33;;;;;;;1.50;1.40;;;10.60;99.90;;;;;;4900463;29;20223;-83
2022/05/30 03:54:02;;;;;;;1.08;1.08;;;10.70;99.90;;;;;;4900093;29;20208;-83
2022/05/30 03:56:30;;;;;;;0.93;0.93;;;10.70;99.90;;;;;;4900586;29;20282;-83
2022/05/30 03:58:59;;;;;;;1.10;1.00;;;10.70;99.90;;;;;;4900216;29;20227;-83
2022/05/30 04:01:29;;;;;;;1.25;1.10;;;10.70;99.90;;;;;;4900160;29;20203;-83
2022/05/30 04:03:59;;;;;;;1.50;1.40;;;10.80;99.90;;;;;;4900434;29;20211;-83
2022/05/30 04:06:28;;;;;;;1.10;1.02;;;10.80;99.90;;;;;;4900339;29;20282;-83
2022/05/30 04:08:59;;;;;;;1.60;1.38;;;10.70;99.90;;;;;;4900343;29;20227;-83
2022/05/30 04:11:28;;;;;;;1.58;1.48;;;10.70;99.90;;;;;;4900033;29;20222;-83
2022/05/30 04:13:57;;;;;;;1.23;1.20;;;10.70;99.90;;;;;;4899975;29;20269;-83
2022/05/30 04:16:29;;;;;;;1.55;1.38;;;10.70;99.90;;;;;;4900373;29;20297;-83
2022/05/30 04:19:02;;;;;;;1.20;1.20;;;10.70;99.90;;;;;;4899667;29;20239;-83
2022/05/30 04:21:31;;;;;;;1.50;1.40;;;10.60;99.90;;;;;;4900102;29;20207;-83
2022/05/30 04:23:59;;;;;;;1.75;1.10;;;10.60;99.90;;;;;;4900090;29;20207;-83
2022/05/30 04:26:28;;;;;;;1.10;1.10;;;10.60;99.90;;;;;;4899780;29;20215;-83
2022/05/30 04:28:56;;;;;;;0.95;0.95;;;10.60;99.90;;;;;;4900282;29;20230;-83
2022/05/30 04:31:25;;;;;;;1.15;1.13;;;10.50;99.90;;;;;;4899271;29;20287;-83
2022/05/30 04:33:54;;;;;;;0.90;0.90;;;10.50;99.90;;;;;;4899836;29;20306;-83
2022/05/30 04:36:24;;;;;;;0.93;0.93;;;10.50;99.90;;;;;;4899929;29;20207;-83
2022/05/30 04:38:52;;;;;;;0.90;0.90;;;10.50;99.90;;;;;;4899900;29;20251;-83
2022/05/30 04:41:21;;;;;;;1.73;1.30;;;10.50;99.90;;;;;;4899714;29;20282;-83
2022/05/30 04:43:49;;;;;;;1.02;1.00;;;10.50;99.90;;;;;;4899782;29;20211;-83
2022/05/30 04:46:20;;;;;;;0.98;0.98;;;10.60;99.90;;;;;;4899894;29;20247;-83
2022/05/30 04:48:50;;;;;;;1.38;1.30;;;10.60;99.90;;;;;;4899818;29;20254;-83
2022/05/30 04:51:18;;;;;;;1.10;1.10;;;10.60;99.90;;;;;;4899333;29;20247;-83
2022/05/30 04:53:48;;;;;;;1.38;1.33;;;10.70;99.90;;;;;;4899055;29;20234;-83
2022/05/30 04:56:17;;;;;;;1.33;1.27;;;10.80;99.90;;;;;;4900034;29;20298;-83
2022/05/30 04:58:46;;;;;;;1.48;1.38;;;10.80;99.90;;;;;;4899825;29;20246;-83
2022/05/30 05:01:16;;;;;;;1.40;1.30;;;10.90;99.90;;;;;;4899371;29;20211;-83
2022/05/30 05:03:46;;;;;;;1.00;1.00;;;11.00;99.90;;;;;;4899731;29;20207;-83
2022/05/30 05:06:19;;;;;;;1.00;1.00;;;10.90;99.90;;;;;;4899658;29;20218;-83
2022/05/30 05:08:55;;;;;;;1.63;1.20;;;11.00;99.90;;;;;;4899752;29;20250;-83
2022/05/30 05:11:25;;;;;;;1.67;1.52;;;11.10;99.90;;;;;;4899721;29;20231;-83
2022/05/30 05:13:55;;;;;;;1.63;1.52;;;11.10;99.90;;;;;;4899191;29;20207;-83
2022/05/30 05:16:27;;;;;;;1.40;1.30;;;11.20;99.90;;;;;;4899294;29;20207;-83
2022/05/30 05:18:56;;;;;;;1.02;1.02;;;11.20;99.90;;;;;;4898641;29;20322;-83
2022/05/30 05:21:27;;;;;;;1.30;1.20;;;11.20;99.90;;;;;;4899254;29;20211;-83
2022/05/30 05:23:59;;;;;;;1.60;1.50;;;11.20;99.90;;;;;;4899150;29;20260;-83
2022/05/30 05:26:28;;;;;;;1.40;1.30;;;11.20;99.90;;;;;;4898903;29;20207;-83
2022/05/30 05:28:57;;;;;;;1.05;0.95;;;11.30;99.90;;;;;;4898771;29;20235;-83
2022/05/30 05:31:27;;;;;;;1.25;1.20;;;11.30;99.90;;;;;;4899078;29;20231;-82
2022/05/30 05:33:58;;;;;;;1.70;1.60;;;11.30;99.90;;;;;;4899016;29;20297;-83
2022/05/30 05:36:29;;;;;;;1.50;1.40;;;11.40;99.90;;;;;;4897495;29;20235;-83
2022/05/30 05:39:00;;;;;;;1.33;1.23;;;11.60;99.90;;;;;;4898325;29;20273;-83
2022/05/30 05:41:28;;;;;;;1.83;1.55;;;11.70;99.90;;;;;;4898788;29;20217;-83
2022/05/30 05:43:57;;;;;;;0.95;0.95;;;11.80;99.90;;;;;;4898603;29;20290;-83
2022/05/30 05:46:27;;;;;;;2.35;1.60;;;11.80;99.90;;;;;;4899199;29;20241;-83
2022/05/30 05:48:57;;;;;;;16.67;1.63;;;11.80;99.90;;;;;;4887248;29;20243;-83
2022/05/30 05:51:26;;;;;;;2.05;1.85;;;11.80;99.90;;;;;;4894362;29;20231;-83
2022/05/30 05:53:55;;;;;;;1.70;1.60;;;11.90;99.90;;;;;;4889658;29;20242;-83
2022/05/30 05:56:27;;;;;;;1.67;1.58;;;12.00;99.90;;;;;;4884217;29;20238;-82
2022/05/30 05:58:56;;;;;;;2.58;1.80;;;12.00;99.90;;;;;;4896549;29;20294;-83
2022/05/30 06:01:30;;;;;;;2.30;1.70;;;11.70;99.90;;;;;;4899139;29;20241;-83
2022/05/30 06:04:00;;;;;;;1.70;1.60;;;11.60;99.90;;;;;;4896952;29;20214;-83
2022/05/30 06:06:29;;;;;;;3.47;2.00;;;11.50;99.90;;;;;;4899119;29;20291;-84
2022/05/30 06:09:05;;;;;;;2.10;1.85;;;11.60;99.90;;;;;;4898359;29;20231;-83
2022/05/30 06:11:35;;;;;;;1.45;1.42;;;11.50;99.90;;;;;;4898983;29;20215;-83
2022/05/30 06:14:04;;;;;;;2.33;1.85;;;11.50;99.90;;;;;;4898246;29;20270;-83
2022/05/30 06:16:36;;;;;;;1.70;1.60;;;11.50;99.90;;;;;;4898997;29;20295;-83
2022/05/30 06:19:06;;;;;;;2.05;1.95;;;11.40;99.90;;;;;;4898619;29;20239;-84
2022/05/30 06:21:35;;;;;;;2.08;1.88;;;11.50;99.90;;;;;;4898109;29;20207;-84
2022/05/30 06:24:05;;;;;;;1.98;1.88;;;11.60;99.90;;;;;;4898571;29;20215;-83
2022/05/30 06:26:35;;;;;;;2.30;1.90;;;11.70;99.90;;;;;;4898433;29;20211;-84
2022/05/30 06:29:03;;;;;;;2.10;2.00;;;11.80;99.90;;;;;;4898582;29;20251;-84
2022/05/30 06:31:33;;;;;;;2.72;2.50;;;11.90;99.90;;;;;;4898283;29;20227;-84
2022/05/30 06:34:02;;;;;;;2.70;2.42;;;12.00;99.90;;;;;;4898426;29;20274;-83
2022/05/30 06:36:31;;;;;;;2.13;1.92;;;12.10;99.90;;;;;;4898134;29;20290;-83
2022/05/30 06:38:59;;;;;;;2.40;2.20;;;12.30;99.90;;;;;;4898203;29;20230;-84
2022/05/30 06:41:30;;;;;;;2.25;2.13;;;12.50;99.90;;;;;;4897634;29;20287;-83
2022/05/30 06:44:02;;;;;;;2.33;1.83;;;12.70;99.90;;;;;;4889733;29;20234;-83
2022/05/30 06:46:31;;;;;;;1.80;1.70;;;12.90;99.90;;;;;;4882044;29;20212;-83
2022/05/30 06:48:59;;;;;;;1.65;1.58;;;13.10;99.90;;;;;;4898565;29;20222;-83
2022/05/30 06:51:29;;;;;;;1.77;1.67;;;13.30;99.90;;;;;;4898108;29;20238;-83
2022/05/30 06:53:58;;;;;;;3.88;2.45;;;13.60;99.90;;;;;;4898399;29;20226;-84
2022/05/30 06:56:29;;;;;;;1.77;1.67;;;13.70;99.90;;;;;;4897706;29;20238;-84
2022/05/30 06:58:58;;;;;;;1.88;1.77;;;13.80;99.90;;;;;;4897909;29;20219;-84
2022/05/30 07:01:30;;;;;;;1.88;1.75;;;14.00;99.90;;;;;;4898240;29;20211;-84
2022/05/30 07:04:00;;;;;;;1.75;1.65;;;14.20;99.90;;;;;;4898081;29;20262;-84
2022/05/30 07:06:32;;;;;;;1.95;1.85;;;14.50;99.90;;;;;;4898078;29;20218;-83
2022/05/30 07:09:02;;;;;;;1.70;1.60;;;14.70;99.90;;;;;;4879843;29;20299;-84
2022/05/30 07:11:30;;;;;;;2.83;2.47;;;14.80;99.90;;;;;;4879997;29;20264;-84
2022/05/30 07:13:59;;;;;;;1.92;1.80;;;15.10;99.90;;;;;;4897410;29;20301;-84
2022/05/30 07:16:29;;;;;;;1.88;1.77;;;15.40;99.90;;;;;;4898440;29;20262;-84
2022/05/30 07:18:59;;;;;;;1.90;1.75;;;15.90;99.90;;;;;;4897737;29;20258;-84
2022/05/30 07:21:27;;;;;;;2.13;1.98;;;16.50;99.90;;;;;;4897655;29;20215;-84
2022/05/30 07:23:55;;;;;;;2.15;2.05;;;17.20;99.90;;;;;;4886347;29;20228;-83
2022/05/30 07:26:24;;;;;;;1.85;1.75;;;17.90;99.90;;;;;;4892827;29;20204;-84
2022/05/30 07:28:52;;;;;;;1.60;1.50;;;18.40;99.90;;;;;;4897430;29;20227;-84
2022/05/30 07:31:25;;;;;;;1.48;1.38;;;18.70;99.90;;;;;;4897929;29;20306;-84
2022/05/30 07:33:55;;;;;;;5.45;2.40;;;18.70;99.90;;;;;;4897846;29;20223;-84
2022/05/30 07:36:25;;;;;;;1.92;1.77;;;19.30;99.90;;;;;;4897944;29;20299;-84
2022/05/30 07:38:55;;;;;;;2.08;1.40;;;20.00;99.90;;;;;;4898128;29;20235;-84
2022/05/30 07:41:25;;;;;;;1.90;1.70;;;20.30;99.90;;;;;;4897413;29;20199;-84
2022/05/30 07:44:02;;;;;;;1.33;1.20;;;20.50;99.90;;;;;;4897527;29;20310;-84
2022/05/30 07:46:30;;;;;;;5.65;1.65;;;21.20;99.10;;;;;;4897766;29;20206;-84
2022/05/30 07:49:00;;;;;;;1.40;1.30;;;22.00;97.40;;;;;;4897451;29;20258;-84
2022/05/30 07:51:28;;;;;;;0.98;0.98;;;22.80;94.10;;;;;;4897638;29;20214;-84
2022/05/30 07:53:56;;;;;;;1.40;1.30;;;23.80;92.40;;;;;;4889231;29;20220;-84
2022/05/30 07:56:26;;;;;;;1.25;1.23;;;24.70;88.00;;;;;;4879297;29;20227;-85
2022/05/30 07:58:56;;;;;;;1.13;1.10;;;25.50;82.80;;;;;;4891602;29;20223;-84
2022/05/30 08:01:27;;;;;;;1.77;1.10;;;26.00;79.10;;;;;;4886272;29;20208;-84
2022/05/30 08:03:56;;;;;;;1.27;1.17;;;26.10;77.80;;;;;;4896252;29;20283;-84
2022/05/30 08:06:32;;;;;;;1.30;1.15;;;26.30;72.60;;;;;;4882932;29;20204;-86
2022/05/30 08:09:01;;;;;;;1.52;1.30;;;25.80;70.50;;;;;;4894566;29;20258;-86
2022/05/30 08:11:31;;;;;;;1.42;1.40;;;25.80;69.90;;;;;;4887396;29;20214;-85
2022/05/30 08:14:00;;;;;;;1.00;1.00;;;26.40;69.90;;;;;;4886472;29;20246;-86
2022/05/30 08:16:29;;;;;;;1.00;1.00;;;26.60;70.20;;;;;;4892600;29;20214;-86
2022/05/30 08:19:17;;;;;;;1.25;1.17;;;27.50;67.60;;;;;;4900173;29;20295;-86
2022/05/30 08:22:14;;;;;;;1.40;1.30;;;28.00;64.40;;;;;;4891701;29;20206;-86
2022/05/30 08:24:44;;;;;;;1.30;1.20;;;28.00;64.40;;;;;;4900576;29;20271;-87
2022/05/30 08:27:13;;;;;;;1.45;1.20;;;27.70;67.30;;;;;;4899868;29;20302;-90
2022/05/30 08:29:43;;;;;;;1.52;1.42;;;28.10;62.20;;;;;;4885735;29;20227;-89
2022/05/30 08:32:14;;;;;;;2.17;1.48;;;27.60;63.00;;;;;;4890505;29;20267;-92
2022/05/30 08:34:43;;;;;;;1.20;1.20;;;27.00;62.70;;;;;;4900209;29;20227;-90
2022/05/30 08:37:13;;;;;;;1.40;1.30;;;26.80;64.30;;;;;;4900333;29;20211;-91
2022/05/30 08:42:33;;;;;;;1.30;1.30;;;25.60;63.80;;;;;;4898319;29;20199;-89
2022/05/30 08:45:05;;;;;;;1.85;1.33;;;26.20;65.40;;;;;;4900119;29;20230;-88
2022/05/30 08:47:45;;;;;;;3.22;1.55;;;27.40;63.10;;;;;;4899523;29;20271;-89
2022/05/30 08:50:22;;;;;;;1.10;1.00;;;29.00;65.00;;;;;;4899784;29;20266;-89
2022/05/30 08:53:29;;;;;;;1.30;1.20;;;29.50;58.60;;;;;;4900176;29;20203;-89
2022/05/30 08:56:02;;;;;;;1.50;1.40;;;30.20;58.30;;;;;;4899824;29;20233;-89
2022/05/30 08:58:43;;;;;;;1.30;1.20;;;29.70;56.50;;;;;;4899788;29;20291;-89
2022/05/30 09:01:15;;;;;;;1.15;1.08;;;28.90;55.60;;;;;;4899493;29;20236;-89
2022/05/30 09:04:07;;;;;;;1.48;1.30;;;27.60;58.00;;;;;;4899577;29;20214;-89
2022/05/30 09:06:42;;;;;;;1.23;0.93;;;25.70;59.20;;;;;;4898384;29;20241;-88
2022/05/30 09:09:22;;;;;;;1.75;1.30;;;24.70;61.80;;;;;;4881452;29;20239;-87
2022/05/30 09:11:56;;;;;;;2.97;1.30;;;24.30;66.90;;;;;;4881346;29;20235;-87
2022/05/30 09:14:36;;;;;;;1.33;1.27;;;25.00;66.30;;;;;;4884366;29;20290;-85
2022/05/30 09:17:13;;;;;;;1.63;1.25;;;25.80;58.60;;;;;;4881413;29;20242;-86
2022/05/30 09:19:43;;;;;;;2.88;1.13;;;26.50;59.10;;;;;;4880427;29;20243;-86
2022/05/30 09:22:12;;;;;;;1.35;1.23;;;26.70;57.00;;;;;;4880285;29;20215;-87
2022/05/30 09:25:55;;;;;;;1.83;1.40;;;26.80;58.80;;;;;;4895170;29;20218;-86
2022/05/30 09:27:33;;;;;;;0.90;0.90;;;26.70;57.00;;;;;;4899763;29;20238;-86
2022/05/30 09:30:03;;;;;;;1.40;1.30;;;26.20;58.40;;;;;;4899823;29;20234;-86
2022/05/30 09:32:41;;;;;;;1.45;1.35;;;26.20;58.40;;;;;;4899179;29;20289;-84
2022/05/30 09:35:26;;;;;;;1.20;1.20;;;26.60;58.70;;;;;;4898636;29;20219;-84
2022/05/30 09:38:10;;;;;;;1.30;1.20;;;26.80;56.60;;;;;;4886905;29;20251;-84
2022/05/30 09:40:48;;;;;;;1.17;1.10;;;27.30;55.60;;;;;;4899504;29;20238;-84
2022/05/30 09:43:25;;;;;;;1.35;1.27;;;28.30;57.10;;;;;;4899538;29;20233;-84
2022/05/30 09:45:55;;;;;;;1.20;1.17;;;28.90;57.80;;;;;;4898736;29;20214;-84
2022/05/30 09:48:24;;;;;;;9.68;1.52;;;28.30;53.00;;;;;;4899074;29;20235;-84
2022/05/30 09:50:56;;;;;;;1.30;1.20;;;27.40;54.10;;;;;;4899198;29;20223;-84
2022/05/30 09:53:41;;;;;;;1.40;1.30;;;27.20;56.50;;;;;;4899085;29;20215;-84
2022/05/30 09:56:14;;;;;;;1.30;1.25;;;27.30;55.40;;;;;;4898838;29;20203;-84
2022/05/30 09:58:46;;;;;;;1.27;1.17;;;27.00;55.00;;;;;;4895916;29;20227;-82
2022/05/30 10:01:24;;;;;;;1.40;1.30;;;25.80;55.20;;;;;;4881640;29;20207;-84
2022/05/30 10:03:57;;;;;;;1.38;1.27;;;24.60;56.60;;;;;;4887718;29;20206;-84
2022/05/30 10:06:27;;;;;;;1.05;0.98;;;24.80;60.00;;;;;;4899185;29;20310;-84
2022/05/30 10:09:09;;;;;;;1.42;1.30;;;25.40;58.30;;;;;;4898715;29;20253;-84
2022/05/30 10:11:40;;;;;;;1.50;1.40;;;26.60;56.00;;;;;;4898100;29;20302;-84
2022/05/30 10:14:19;;;;;;;1.58;1.40;;;27.70;58.00;;;;;;4894257;29;20258;-84
2022/05/30 10:16:48;;;;;;;1.63;1.30;;;29.00;57.40;;;;;;4886600;29;20237;-83
2022/05/30 10:19:25;;;;;;;1.48;1.38;;;30.00;54.10;;;;;;4898335;29;20253;-84
2022/05/30 10:28:16;;;;;;;1.60;1.50;;;31.00;52.20;;;;;;4863802;29;20286;-83
2022/05/30 10:30:57;;;;;;;1.15;1.13;;;30.30;54.30;;;;;;4897836;29;20298;-84
2022/05/30 10:33:37;;;;;;;1.27;1.20;;;30.20;55.40;;;;;;4898599;29;20203;-85
2022/05/30 10:36:18;;;;;;;4.72;1.30;;;30.50;55.00;;;;;;4895451;29;20265;-84
2022/05/30 10:39:03;;;;;;;1.30;1.20;;;30.10;52.20;;;;;;4889595;29;20234;-84
2022/05/30 10:41:39;;;;;;;1.23;1.17;;;29.40;52.50;;;;;;4892732;29;20273;-85
2022/05/30 10:44:15;;;;;;;1.83;1.48;;;28.60;54.20;;;;;;4882533;29;20200;-85
2022/05/30 10:46:56;;;;;;;1.10;1.10;;;28.10;51.90;;;;;;4897284;29;20210;-84
2022/05/30 10:49:28;;;;;;;1.55;1.30;;;28.10;55.90;;;;;;4898363;29;20259;-85
2022/05/30 10:52:01;;;;;;;1.85;1.75;;;28.40;58.10;;;;;;4897773;29;20270;-85
2022/05/30 10:54:34;;;;;;;1.40;1.30;;;29.00;55.30;;;;;;4897975;29;20287;-87
2022/05/30 10:57:16;;;;;;;1.70;1.60;;;29.50;54.70;;;;;;4898106;29;20207;-77
2022/05/30 10:59:51;;;;;;;1.70;1.60;;;30.30;52.90;;;;;;4894018;29;20291;-83
2022/05/30 11:02:30;;;;;;;1.20;1.13;;;30.40;51.00;;;;;;4898074;29;20246;-83
2022/05/30 11:05:02;;;;;;;1.55;1.45;;;30.50;51.50;;;;;;4879746;29;20211;-81
2022/05/30 11:07:46;;;;;;;1.40;1.30;;;30.60;52.50;;;;;;4879021;29;20219;-81
2022/05/30 11:10:27;;;;;;;1.65;1.55;;;30.20;55.00;;;;;;4878226;29;20273;-81
2022/05/30 11:13:09;;;;;;;4.72;1.98;;;29.70;52.60;;;;;;4878374;29;20212;-81
2022/05/30 11:15:46;;;;;;;1.75;1.65;;;28.60;50.50;;;;;;4878220;29;20227;-81
2022/05/30 11:18:21;;;;;;;1.25;1.25;;;28.00;54.60;;;;;;4877964;29;20221;-81
2022/05/30 11:20:59;;;;;;;1.63;1.52;;;27.30;55.10;;;;;;4878328;29;20222;-81
2022/05/30 11:23:27;;;;;;;2.00;1.80;;;26.50;55.30;;;;;;4878193;29;20306;-81
2022/05/30 11:26:15;;;;;;;1.60;1.50;;;25.70;54.90;;;;;;4878431;29;20284;-81
2022/05/30 11:29:05;;;;;;;1.98;1.73;;;24.50;55.40;;;;;;4878433;29;20243;-81
2022/05/30 11:31:41;;;;;;;1.63;1.52;;;24.00;57.70;;;;;;4878528;29;20252;-81
2022/05/30 11:34:33;;;;;;;1.65;1.50;;;23.90;59.40;;;;;;4878539;29;20220;-81
2022/05/30 11:37:46;;;;;;;1.42;1.35;;;23.80;58.60;;;;;;4878547;29;20227;-80
2022/05/30 11:40:24;;;;;;;1.58;1.23;;;24.00;58.40;;;;;;4878147;29;20322;-81
2022/05/30 11:43:17;;;;;;;1.95;1.52;;;24.40;57.30;;;;;;4881380;29;20223;-80
2022/05/30 11:45:55;;;;;;;1.40;1.30;;;24.70;57.30;;;;;;4881491;29;20212;-80
2022/05/30 11:48:34;;;;;;;2.80;1.75;;;25.10;56.80;;;;;;4881746;29;20222;-81
2022/05/30 11:51:14;;;;;;;1.73;1.60;;;25.40;55.90;;;;;;4881407;29;20226;-81
2022/05/30 11:54:24;;;;;;;2.20;1.90;;;25.60;54.50;;;;;;4881414;29;20224;-81
2022/05/30 11:57:02;;;;;;;1.80;1.70;;;25.20;55.60;;;;;;4880907;29;20322;-81
2022/05/30 11:59:44;;;;;;;1.88;1.77;;;24.90;56.40;;;;;;4881498;29;20235;-81
2022/05/30 12:02:18;;;;;;;3.38;1.80;;;24.40;56.50;;;;;;4881230;29;20243;-81
2022/05/30 12:05:16;;;;;;;2.40;1.80;;;24.00;57.40;;;;;;4881364;29;20300;-81
2022/05/30 12:08:01;;;;;;;1.70;1.60;;;23.70;59.90;;;;;;4881124;29;20248;-81
2022/05/30 12:10:43;;;;;;;2.47;1.70;;;23.40;60.20;;;;;;4881098;29;20235;-81
2022/05/30 12:13:26;;;;;;;3.00;2.50;;;23.20;59.50;;;;;;4880938;29;20303;-81
2022/05/30 12:16:20;;;;;;;2.25;2.05;;;23.10;62.40;;;;;;4880837;29;20295;-81
2022/05/30 12:24:57;;;;;;;1.90;1.80;;;22.90;59.30;;;;;;4880770;29;20244;-81
2022/05/30 12:27:37;;;;;;;2.22;2.03;;;22.70;59.80;;;;;;4881025;29;20299;-81
2022/05/30 12:30:13;;;;;;;2.20;2.10;;;22.80;60.30;;;;;;4880427;29;20261;-83
2022/05/30 12:32:44;;;;;;;1.88;1.70;;;23.20;59.30;;;;;;4881024;29;20227;-84
2022/05/30 12:35:26;;;;;;;1.55;1.42;;;23.60;59.80;;;;;;4880758;29;20286;-81
2022/05/30 12:38:15;;;;;;;1.83;1.65;;;24.00;58.50;;;;;;4881168;29;20216;-82
2022/05/30 12:40:45;;;;;;;2.13;1.80;;;24.00;59.10;;;;;;4880699;29;20212;-82
2022/05/30 12:43:32;;;;;;;2.88;2.03;;;23.90;58.90;;;;;;4880691;29;20299;-82
2022/05/30 12:46:20;;;;;;;1.40;1.35;;;23.80;58.60;;;;;;4880629;29;20227;-82
2022/05/30 12:49:07;;;;;;;1.77;1.60;;;23.90;58.50;;;;;;4893249;29;20279;-82
2022/05/30 12:52:01;;;;;;;1.50;1.40;;;23.30;58.80;;;;;;4882866;29;20286;-81
2022/05/30 12:54:37;;;;;;;1.70;1.60;;;23.20;59.20;;;;;;4884347;29;20275;-82
2022/05/30 12:57:22;;;;;;;1.83;1.73;;;23.20;58.90;;;;;;4898241;29;20227;-82
2022/05/30 13:00:38;;;;;;;2.67;1.88;;;23.30;59.30;;;;;;4888221;29;20292;-81
2022/05/30 13:03:35;;;;;;;1.88;1.77;;;23.30;58.40;;;;;;4878692;29;20211;-81
2022/05/30 13:06:15;;;;;;;1.65;1.33;;;23.10;59.10;;;;;;4899404;29;20254;-81
2022/05/30 13:09:07;;;;;;;1.38;1.27;;;22.90;60.30;;;;;;4885902;29;20255;-81
2022/05/30 13:12:02;;;;;;;2.00;1.08;;;22.80;62.00;;;;;;4888581;29;20294;-82
2022/05/30 13:14:48;;;;;;;3.85;1.35;;;22.60;62.50;;;;;;4880978;29;20204;-81
2022/05/30 13:17:24;;;;;;;1.70;1.52;;;22.50;63.20;;;;;;4899034;29;20230;-81
2022/05/30 13:19:55;;;;;;;1.33;1.23;;;22.50;63.40;;;;;;4899514;29;20238;-81
2022/05/30 13:22:28;;;;;;;1.60;1.50;;;22.60;62.10;;;;;;4898979;29;20215;-82
2022/05/30 13:24:57;;;;;;;1.52;1.40;;;22.60;62.80;;;;;;4899269;29;20241;-83
2022/05/30 13:27:28;;;;;;;1.10;1.10;;;22.70;62.10;;;;;;4899483;29;20259;-83
2022/05/30 13:30:01;;;;;;;1.52;1.40;;;22.90;61.40;;;;;;4899018;29;20245;-82
2022/05/30 13:32:31;;;;;;;1.58;1.48;;;22.80;61.40;;;;;;4898882;29;20287;-83
2022/05/30 13:35:01;;;;;;;1.90;1.30;;;22.60;60.00;;;;;;4899050;29;20259;-83
2022/05/30 13:37:33;;;;;;;1.20;1.20;;;22.60;60.20;;;;;;4898645;29;20318;-83
2022/05/30 13:40:05;;;;;;;1.67;1.58;;;22.70;61.50;;;;;;4898858;29;20255;-83
2022/05/30 13:42:50;;;;;;;1.30;1.20;;;22.70;60.60;;;;;;4898836;29;20203;-83